Hlavní strana
METAR-TAF:

METAR-TAF

Letiště :

Crawfordsville, Indiana, Spojené státy americké

zeměpisná šířka: 39-58-34N, zeměpisná délka: 086-55-09W, výška: 244 m

Aktuální stav počasí

Zpráva byla vytvořena před 19 minutami, v 13:35 UTC
Západní vítr 5 kt
Teplota -1°C
Vlhkost vzduchu 100%
Tlak 1028 hPa
Viditelnost: 16.1 km
Jasno

METAR: KCFJ 181335Z AUTO 28005KT 10SM CLR M01/M01 A3037 RMK AO2 T10151015

Čas: 09:54 (13:54 UTC)


TAF: chybějící

Stav a předpovědi počasí z více než 4 000 letišť (zprávy METAR a TAF).

Červené a žluté tečky na mapě představují dostupné meteorologické stanice.

Když kurzor umístíte na tečku, zobrazí se název stanice.

Pak kliknutím zobrazíte stav a předpověď počasí.

Chcete-li změnit mapu, kliknutím na zelené tlačítko se znaménkem +mapu přiblížíte, kliknutím na zelené tlačítko se znaménkem – mapu oddálíte a kliknutím na zelené šipky přejdete na sousední mapy.


METAR-TAF: